Time;durP1;ratioP1;P1;durP2;ratioP2;P2;SDS_P1;SDS_P2;PMS_P1;PMS_P2;Temp;Humidity;BMP_temperature;BMP_pressure;BME280_temperature;BME280_humidity;BME280_pressure;Samples;Min_cycle;Max_cycle;Signal;HPM_P1;HPM_P2
2021/07/30 00:02:04;;;;;;;8.02;3.78;;;;;;;16.58;62.90;99152.53;5006939;28;20494;-57
2021/07/30 00:04:29;;;;;;;7.30;3.25;;;;;;;16.68;62.57;99148.09;5006209;28;20116;-52
2021/07/30 00:06:55;;;;;;;7.53;3.85;;;;;;;16.69;62.50;99153.31;5005857;28;20070;-54
2021/07/30 00:09:20;;;;;;;5.38;3.17;;;;;;;16.67;62.67;99152.59;4998649;28;20037;-54
2021/07/30 00:11:45;;;;;;;6.70;4.10;;;;;;;16.66;63.44;99155.38;5002901;28;20134;-52
2021/07/30 00:14:11;;;;;;;10.80;3.10;;;;;;;16.60;63.50;99156.75;5005228;28;20417;-52
2021/07/30 00:16:36;;;;;;;5.45;3.53;;;;;;;16.60;62.75;99163.88;5009135;28;20815;-72
2021/07/30 00:19:02;;;;;;;7.50;3.03;;;;;;;16.65;62.63;99153.69;5022513;28;20065;-71
2021/07/30 00:21:27;;;;;;;6.15;3.80;;;;;;;16.67;62.45;99149.94;5020982;28;20034;-71
2021/07/30 00:23:53;;;;;;;6.50;2.33;;;;;;;16.70;62.51;99154.97;5013646;28;20034;-71
2021/07/30 00:26:18;;;;;;;8.75;3.55;;;;;;;16.76;62.07;99156.31;5010407;28;20434;-72
2021/07/30 00:28:43;;;;;;;11.52;4.35;;;;;;;16.77;62.02;99150.00;5011727;28;20033;-71
2021/07/30 00:31:09;;;;;;;6.57;3.28;;;;;;;16.72;62.93;99149.53;5011542;28;20044;-71
2021/07/30 00:33:35;;;;;;;8.85;3.30;;;;;;;16.71;62.52;99146.03;5011423;28;20030;-71
2021/07/30 00:36:01;;;;;;;11.25;3.42;;;;;;;16.73;61.66;99156.53;5011096;28;20402;-70
2021/07/30 00:38:26;;;;;;;6.65;2.80;;;;;;;16.72;61.88;99146.88;5010582;28;20045;-72
2021/07/30 00:40:51;;;;;;;6.15;2.90;;;;;;;16.74;61.84;99145.78;5011428;28;20048;-71
2021/07/30 00:43:17;;;;;;;6.50;3.00;;;;;;;16.72;62.87;99149.53;5009772;28;20037;-71
2021/07/30 00:45:43;;;;;;;8.25;3.13;;;;;;;16.66;62.57;99144.72;5011699;28;20092;-71
2021/07/30 00:48:09;;;;;;;7.82;3.47;;;;;;;16.64;62.70;99141.38;5009103;28;20571;-71
2021/07/30 00:50:34;;;;;;;8.80;3.42;;;;;;;16.61;62.44;99139.78;5011087;28;20046;-71
2021/07/30 00:53:00;;;;;;;5.95;2.92;;;;;;;16.62;62.33;99143.31;5010994;28;20030;-71
2021/07/30 00:55:26;;;;;;;6.53;3.92;;;;;;;16.58;61.30;99136.56;5010207;28;20034;-71
2021/07/30 00:57:53;;;;;;;8.88;3.40;;;;;;;16.53;61.60;99132.44;5009532;28;20401;-71
2021/07/30 01:00:21;;;;;;;6.00;3.47;;;;;;;16.51;61.64;99130.91;5011425;28;20050;-71
2021/07/30 01:02:47;;;;;;;6.97;3.10;;;;;;;16.47;61.97;99133.00;4986704;28;20038;-70
2021/07/30 01:05:13;;;;;;;6.90;3.20;;;;;;;16.44;62.73;99135.03;5011034;28;20034;-70
2021/07/30 01:07:39;;;;;;;6.70;3.85;;;;;;;16.36;63.23;99126.88;5010747;28;20034;-71
2021/07/30 01:10:05;;;;;;;10.77;4.03;;;;;;;16.28;63.76;99143.47;5010221;28;20084;-72
2021/07/30 01:12:31;;;;;;;5.22;2.92;;;;;;;16.24;63.79;99126.94;5010632;28;20034;-71
2021/07/30 01:14:57;;;;;;;6.03;2.85;;;;;;;16.25;63.78;99122.47;5010605;28;20568;-71
2021/07/30 01:17:24;;;;;;;7.05;3.53;;;;;;;16.18;64.27;99123.94;5009345;28;20563;-72
2021/07/30 01:19:50;;;;;;;7.43;4.07;;;;;;;16.12;64.47;99124.44;5011899;28;20049;-72
2021/07/30 01:22:27;;;;;;;9.50;4.15;;;;;;;16.04;64.72;99125.91;5011155;28;20074;-71
2021/07/30 01:24:53;;;;;;;8.85;3.30;;;;;;;15.96;65.11;99131.03;5010840;28;20045;-71
2021/07/30 01:27:20;;;;;;;5.95;3.05;;;;;;;15.90;65.19;99128.88;5011464;28;20053;-72
2021/07/30 01:29:46;;;;;;;5.82;3.72;;;;;;;15.85;65.69;99126.59;5011138;28;20121;-73
2021/07/30 01:32:12;;;;;;;6.10;3.85;;;;;;;15.77;66.15;99120.19;5009888;28;20486;-71
2021/07/30 01:34:37;;;;;;;5.43;3.08;;;;;;;15.72;65.77;99122.38;5011188;28;20041;-71
2021/07/30 01:37:03;;;;;;;6.55;3.42;;;;;;;15.68;66.52;99122.63;5010509;28;20555;-70
2021/07/30 01:39:28;;;;;;;6.43;3.38;;;;;;;15.62;66.70;99128.41;5010660;28;20042;-71
2021/07/30 01:41:54;;;;;;;8.80;3.40;;;;;;;15.59;66.18;99120.69;5011508;28;20561;-71
2021/07/30 01:44:19;;;;;;;7.45;3.35;;;;;;;15.54;66.58;99117.56;5012164;28;20421;-71
2021/07/30 01:46:46;;;;;;;7.00;3.08;;;;;;;15.50;66.69;99116.13;5002036;28;20026;-71
2021/07/30 01:49:11;;;;;;;10.15;3.05;;;;;;;15.50;66.12;99112.63;5027791;28;20587;-71
2021/07/30 01:51:36;;;;;;;7.68;3.53;;;;;;;15.46;66.73;99106.72;5032506;28;20041;-71
2021/07/30 01:54:02;;;;;;;9.35;3.28;;;;;;;15.46;66.21;99094.28;5031897;28;20622;-71
2021/07/30 01:56:27;;;;;;;6.53;2.90;;;;;;;15.42;66.50;99098.13;5037574;28;20089;-71
2021/07/30 01:58:53;;;;;;;12.48;3.53;;;;;;;15.41;65.49;99095.63;5034644;28;20092;-71
2021/07/30 02:01:18;;;;;;;4.90;2.95;;;;;;;15.42;66.27;99094.66;5031881;28;20029;-72
2021/07/30 02:03:43;;;;;;;6.32;3.53;;;;;;;15.37;66.03;99097.66;5031010;28;20056;-71
2021/07/30 02:06:09;;;;;;;8.85;3.00;;;;;;;15.37;64.98;99095.00;5030506;28;20121;-69
2021/07/30 02:08:36;;;;;;;7.82;3.53;;;;;;;15.37;65.61;99094.19;5030001;28;20410;-70
2021/07/30 02:11:07;;;;;;;7.85;3.65;;;;;;;15.37;65.63;99094.19;5031975;28;20561;-70
2021/07/30 02:16:17;;;;;;;5.63;3.97;;;;;;;15.35;64.48;99093.44;5030027;28;20106;-71
2021/07/30 02:18:42;;;;;;;5.65;3.40;;;;;;;15.35;65.20;99091.63;5030278;28;20481;-71
2021/07/30 02:21:07;;;;;;;8.38;2.90;;;;;;;15.37;64.04;99083.56;5027875;28;20059;-70
2021/07/30 02:23:33;;;;;;;5.20;2.95;;;;;;;15.39;63.67;99079.81;5029587;28;20136;-71
2021/07/30 02:25:58;;;;;;;5.05;3.03;;;;;;;15.38;63.61;99078.13;5029520;28;20033;-71
2021/07/30 02:28:23;;;;;;;7.68;3.67;;;;;;;15.41;63.61;99080.53;5029214;28;20064;-71
2021/07/30 02:30:49;;;;;;;5.72;3.15;;;;;;;15.42;63.54;99081.38;5029779;28;20091;-71
2021/07/30 02:33:14;;;;;;;6.10;2.72;;;;;;;15.43;63.67;99075.94;5029448;28;20034;-71
2021/07/30 02:35:39;;;;;;;6.00;3.25;;;;;;;15.44;63.33;99079.44;5028944;28;20029;-70
2021/07/30 02:38:05;;;;;;;5.18;2.75;;;;;;;15.42;63.02;99074.22;5029091;28;20401;-70
2021/07/30 02:40:30;;;;;;;6.07;2.67;;;;;;;15.43;63.28;99072.41;5028828;28;20091;-70
2021/07/30 02:42:55;;;;;;;4.90;3.05;;;;;;;15.40;63.04;99070.84;5029151;28;20501;-70
2021/07/30 02:45:21;;;;;;;8.35;3.72;;;;;;;15.40;63.14;99070.84;5029608;28;20049;-70
2021/07/30 02:47:46;;;;;;;6.72;2.97;;;;;;;15.41;62.95;99075.22;5028859;28;20040;-70
2021/07/30 02:50:11;;;;;;;7.43;3.13;;;;;;;15.40;63.71;99067.34;5029105;28;20116;-70
2021/07/30 02:52:37;;;;;;;6.53;3.40;;;;;;;15.38;63.35;99072.81;5029022;28;20037;-71
2021/07/30 02:55:02;;;;;;;7.75;3.40;;;;;;;15.37;63.06;99067.63;5028655;28;20041;-70
2021/07/30 02:57:28;;;;;;;5.95;2.50;;;;;;;15.35;63.23;99067.72;5028893;28;20038;-70
2021/07/30 02:59:53;;;;;;;4.18;2.63;;;;;;;15.34;63.13;99065.22;5029217;28;20065;-71
2021/07/30 03:02:18;;;;;;;5.47;3.25;;;;;;;15.34;63.37;99058.09;5029379;28;20057;-72
2021/07/30 03:04:43;;;;;;;4.70;2.78;;;;;;;15.35;63.45;99062.41;5028700;28;20109;-70
2021/07/30 03:07:09;;;;;;;6.05;3.40;;;;;;;15.33;63.01;99058.19;5027455;28;20124;-71
2021/07/30 03:09:34;;;;;;;5.97;2.90;;;;;;;15.32;63.49;99056.53;5027684;28;20516;-71
2021/07/30 03:12:00;;;;;;;7.00;3.33;;;;;;;15.28;64.07;99055.06;5029117;28;20409;-71
2021/07/30 03:14:25;;;;;;;6.72;3.03;;;;;;;15.27;63.83;99056.03;5028948;28;20036;-71
2021/07/30 03:16:50;;;;;;;5.95;3.30;;;;;;;15.23;63.85;99043.03;5028813;28;20539;-71
2021/07/30 03:19:16;;;;;;;6.63;4.03;;;;;;;15.22;63.53;99041.31;5027251;28;20057;-71
2021/07/30 03:21:41;;;;;;;8.85;3.13;;;;;;;15.24;63.26;99041.22;5030133;28;20053;-71
2021/07/30 03:24:06;;;;;;;6.30;2.85;;;;;;;15.24;63.42;99047.34;5032247;28;20033;-71
2021/07/30 03:26:36;;;;;;;8.40;3.03;;;;;;;15.24;64.30;99044.69;5032101;28;20094;-70
2021/07/30 03:29:03;;;;;;;7.95;2.55;;;;;;;15.27;63.66;99050.75;5032555;28;20030;-71
2021/07/30 03:31:29;;;;;;;6.35;2.72;;;;;;;15.24;63.76;99052.66;5032599;28;20132;-71
2021/07/30 03:33:54;;;;;;;7.63;3.17;;;;;;;15.22;63.36;99051.94;5031888;28;20176;-70
2021/07/30 03:36:19;;;;;;;8.88;3.75;;;;;;;15.22;63.58;99053.75;5031053;28;20124;-70
2021/07/30 03:38:45;;;;;;;6.07;2.85;;;;;;;15.22;63.33;99051.09;5032123;28;20489;-70
2021/07/30 03:41:10;;;;;;;4.20;2.50;;;;;;;15.20;63.21;99047.72;5032711;28;20507;-70
2021/07/30 03:43:35;;;;;;;8.27;3.10;;;;;;;15.22;63.56;99053.75;5032306;28;20025;-70
2021/07/30 03:46:01;;;;;;;6.03;3.25;;;;;;;15.21;63.19;99044.94;5032190;28;20141;-71
2021/07/30 03:48:26;;;;;;;5.00;2.85;;;;;;;15.20;63.08;99040.59;5031763;28;20393;-71
2021/07/30 03:50:51;;;;;;;7.53;3.42;;;;;;;15.19;62.67;99046.88;5032345;28;20040;-70
2021/07/30 03:53:17;;;;;;;11.23;2.63;;;;;;;15.19;62.99;99052.19;5031939;28;20516;-71
2021/07/30 03:55:42;;;;;;;6.35;3.40;;;;;;;15.17;63.40;99048.81;5027294;28;20033;-70
2021/07/30 03:58:08;;;;;;;6.95;3.30;;;;;;;15.15;63.06;99042.78;5006746;28;20042;-70
2021/07/30 04:00:33;;;;;;;6.88;3.17;;;;;;;15.14;63.36;99046.41;5012002;28;20037;-70
2021/07/30 04:02:59;;;;;;;10.30;3.15;;;;;;;15.09;63.76;99039.75;5011793;28;20417;-72
2021/07/30 04:05:24;;;;;;;7.45;3.65;;;;;;;15.10;63.74;99049.44;5000883;28;20038;-72
2021/07/30 04:07:49;;;;;;;11.60;3.80;;;;;;;15.11;63.19;99046.66;4992922;28;20069;-71
2021/07/30 04:10:15;;;;;;;6.30;3.25;;;;;;;15.12;63.29;99037.72;4992363;28;20130;-71
2021/07/30 04:12:40;;;;;;;4.72;3.30;;;;;;;15.14;63.59;99037.59;4992408;28;20114;-70
2021/07/30 04:15:06;;;;;;;11.98;2.78;;;;;;;15.20;63.45;99040.59;4992686;28;20035;-71
2021/07/30 04:17:31;;;;;;;4.57;2.88;;;;;;;15.22;63.61;99029.84;4992086;28;20030;-71
2021/07/30 04:19:56;;;;;;;6.85;2.72;;;;;;;15.23;63.38;99026.22;4992103;28;20092;-71
2021/07/30 04:22:22;;;;;;;10.38;3.40;;;;;;;15.24;63.70;99022.63;4992360;28;20081;-71
2021/07/30 04:24:47;;;;;;;4.88;2.58;;;;;;;15.28;63.54;99028.50;4990672;28;20042;-71
2021/07/30 04:27:12;;;;;;;4.32;3.13;;;;;;;15.28;63.19;99031.16;4992039;28;20042;-70
2021/07/30 04:29:39;;;;;;;3.83;2.50;;;;;;;15.32;62.56;99036.13;4992007;28;20093;-70
2021/07/30 04:32:09;;;;;;;6.38;3.10;;;;;;;15.34;62.19;99031.53;4991254;28;20114;-71
2021/07/30 04:34:36;;;;;;;5.35;2.90;;;;;;;15.37;62.03;99033.09;4991591;28;20038;-70
2021/07/30 04:37:01;;;;;;;4.78;2.67;;;;;;;15.42;61.87;99025.59;4991313;28;20045;-70
2021/07/30 04:39:26;;;;;;;6.45;2.97;;;;;;;15.46;61.87;99017.25;4991758;28;20117;-71
2021/07/30 04:41:52;;;;;;;10.70;3.17;;;;;;;15.51;61.87;99029.31;4991966;28;20402;-71
2021/07/30 04:44:18;;;;;;;4.82;2.70;;;;;;;15.56;61.60;99021.81;5006296;28;20037;-71
2021/07/30 04:46:43;;;;;;;6.88;3.97;;;;;;;15.62;61.24;99016.81;5010878;28;20038;-71
2021/07/30 04:49:08;;;;;;;4.85;3.08;;;;;;;15.66;61.25;99014.75;5011281;28;20385;-71
2021/07/30 04:51:34;;;;;;;5.90;2.90;;;;;;;15.71;60.72;99020.56;5011166;28;20049;-71
2021/07/30 04:53:59;;;;;;;5.30;3.13;;;;;;;15.71;60.92;99017.91;5011166;28;20454;-71
2021/07/30 04:56:25;;;;;;;5.78;3.10;;;;;;;15.77;60.88;99013.91;5011049;28;20498;-71
2021/07/30 04:58:51;;;;;;;7.13;2.78;;;;;;;15.81;60.89;99018.00;5011546;28;20077;-70
2021/07/30 05:01:16;;;;;;;7.22;2.88;;;;;;;15.85;60.48;99008.78;5010918;28;20053;-70
2021/07/30 05:03:42;;;;;;;4.80;2.78;;;;;;;15.89;60.32;99005.75;5011025;28;20030;-71
2021/07/30 05:06:12;;;;;;;6.10;2.63;;;;;;;15.94;60.54;99008.00;5010727;28;20111;-71
2021/07/30 05:08:38;;;;;;;5.88;2.33;;;;;;;16.00;60.43;99012.00;5010604;28;20104;-70
2021/07/30 05:11:03;;;;;;;6.18;2.70;;;;;;;16.00;60.31;99002.19;5010931;28;20442;-70
2021/07/30 05:13:28;;;;;;;6.00;2.90;;;;;;;16.02;60.26;98997.59;5010755;28;20626;-71
2021/07/30 05:15:54;;;;;;;4.38;2.80;;;;;;;16.04;60.20;99008.91;5010884;28;20038;-71
2021/07/30 05:18:19;;;;;;;10.40;3.33;;;;;;;16.08;60.29;99007.69;5011448;28;20452;-71
2021/07/30 05:20:44;;;;;;;6.45;3.25;;;;;;;16.10;60.14;99000.44;5011127;28;20042;-72
2021/07/30 05:23:10;;;;;;;5.13;2.75;;;;;;;16.19;60.19;99004.13;5011372;28;20046;-72
2021/07/30 05:25:35;;;;;;;6.15;2.97;;;;;;;16.22;59.97;99009.19;5011249;28;20513;-72
2021/07/30 05:28:00;;;;;;;6.43;3.03;;;;;;;16.22;60.08;99003.88;5011120;28;20120;-72
2021/07/30 05:30:26;;;;;;;4.65;2.30;;;;;;;16.24;60.27;98995.75;5013150;28;20041;-71
2021/07/30 05:32:51;;;;;;;10.02;4.30;;;;;;;16.33;60.04;99000.28;5032023;28;20045;-70
2021/07/30 05:35:17;;;;;;;8.50;3.20;;;;;;;16.41;60.08;98996.97;5029145;28;20485;-72
2021/07/30 05:37:42;;;;;;;10.25;2.80;;;;;;;16.49;59.23;98990.03;5030419;28;20029;-71
2021/07/30 05:40:08;;;;;;;5.13;2.88;;;;;;;16.57;59.37;98985.88;5026839;28;20034;-70
2021/07/30 05:42:33;;;;;;;6.20;2.60;;;;;;;16.66;58.88;98985.03;5012755;28;20034;-71
2021/07/30 05:44:59;;;;;;;5.05;2.45;;;;;;;16.74;58.70;98986.06;4990550;28;20070;-72
2021/07/30 05:47:24;;;;;;;7.82;2.95;;;;;;;16.84;58.77;98982.63;4996517;28;20042;-70
2021/07/30 05:49:49;;;;;;;3.90;2.80;;;;;;;16.93;58.10;98992.44;4991387;28;20110;-71
2021/07/30 05:52:15;;;;;;;5.03;2.28;;;;;;;17.02;58.18;98977.50;4990368;28;20841;-71
2021/07/30 05:54:41;;;;;;;7.57;3.50;;;;;;;17.11;58.13;98982.84;4989576;28;20038;-72
2021/07/30 05:57:06;;;;;;;5.93;3.33;;;;;;;17.17;57.99;98974.28;5010660;28;20513;-71
2021/07/30 05:59:31;;;;;;;4.20;2.50;;;;;;;17.26;57.50;98975.31;5009343;28;20065;-71
2021/07/30 06:01:57;;;;;;;6.35;3.05;;;;;;;17.34;57.44;98977.28;5008983;28;20034;-71
2021/07/30 06:04:22;;;;;;;5.90;2.85;;;;;;;17.38;57.25;98979.53;5010500;28;20036;-71
2021/07/30 06:06:48;;;;;;;4.50;2.83;;;;;;;17.43;57.58;98979.09;5031383;28;20138;-70
2021/07/30 06:09:13;;;;;;;5.45;2.75;;;;;;;17.51;57.14;98979.25;5009215;28;20034;-71
2021/07/30 06:11:38;;;;;;;4.40;2.67;;;;;;;17.56;57.21;98985.00;5009631;28;20375;-72
2021/07/30 06:14:04;;;;;;;4.40;2.58;;;;;;;17.62;56.83;98978.25;5009284;28;20050;-71
2021/07/30 06:16:29;;;;;;;4.45;2.60;;;;;;;17.69;57.12;98973.22;5008940;28;20034;-71
2021/07/30 06:18:54;;;;;;;7.00;2.75;;;;;;;17.87;56.90;98978.69;5011822;28;20041;-56
2021/07/30 06:21:20;;;;;;;6.60;3.45;;;;;;;18.06;56.29;98985.84;5010200;28;20510;-53
2021/07/30 06:23:46;;;;;;;9.52;2.65;;;;;;;18.22;56.40;98980.75;5009058;28;20517;-57
2021/07/30 06:26:11;;;;;;;3.70;2.20;;;;;;;18.43;55.56;98977.88;5009636;28;20037;-56
2021/07/30 06:28:37;;;;;;;7.63;2.90;;;;;;;18.66;55.03;98981.88;5009695;28;20034;-51
2021/07/30 06:31:02;;;;;;;5.10;2.53;;;;;;;18.76;54.91;98975.69;5009589;28;20041;-53
2021/07/30 06:33:29;;;;;;;4.15;2.53;;;;;;;18.97;54.27;98973.59;5009314;28;20033;-53
2021/07/30 06:35:55;;;;;;;3.50;2.63;;;;;;;19.21;53.85;98972.22;5009645;28;20045;-57
2021/07/30 06:38:20;;;;;;;9.07;3.42;;;;;;;19.36;54.61;98964.50;5009412;28;20030;-56
2021/07/30 06:40:46;;;;;;;6.13;3.03;;;;;;;19.48;55.10;98964.13;5009302;28;20069;-57
2021/07/30 06:43:12;;;;;;;5.63;2.38;;;;;;;19.59;52.37;98967.56;5001922;28;20048;-55
2021/07/30 06:45:37;;;;;;;7.93;3.53;;;;;;;19.70;52.53;98962.03;5030206;28;20045;-54
2021/07/30 06:48:03;;;;;;;4.57;2.50;;;;;;;19.97;52.96;98968.25;5003632;28;20124;-52
2021/07/30 06:50:28;;;;;;;3.78;2.20;;;;;;;20.16;52.21;98960.03;5003904;28;20034;-56
2021/07/30 06:52:54;;;;;;;6.28;2.63;;;;;;;20.37;51.35;98960.47;5004441;28;20026;-55
2021/07/30 06:55:19;;;;;;;8.15;2.78;;;;;;;20.47;50.62;98956.84;5003272;28;20594;-55
2021/07/30 06:57:44;;;;;;;6.88;3.10;;;;;;;20.52;50.82;98963.41;5006630;28;20050;-57
2021/07/30 07:00:12;;;;;;;8.15;3.20;;;;;;;20.54;50.61;98964.09;5007566;28;20154;-54
2021/07/30 07:02:37;;;;;;;12.68;3.03;;;;;;;20.58;50.87;98962.81;5007802;28;20036;-55
2021/07/30 07:05:02;;;;;;;5.40;2.80;;;;;;;20.62;50.83;98957.97;5007837;28;20034;-56
2021/07/30 07:07:28;;;;;;;18.85;3.53;;;;;;;20.68;50.84;98957.34;5007124;28;20042;-49
2021/07/30 07:09:53;;;;;;;14.07;3.33;;;;;;;20.78;50.31;98960.72;5009634;28;20034;-66
2021/07/30 07:12:19;;;;;;;4.95;2.92;;;;;;;20.66;50.48;98947.78;5010442;28;20049;-64
2021/07/30 07:14:44;;;;;;;6.95;3.03;;;;;;;20.68;50.53;98951.97;5004113;28;24692;-67
2021/07/30 07:17:09;;;;;;;6.10;3.20;;;;;;;20.59;50.62;98953.78;5008196;28;20045;-66
2021/07/30 07:19:35;;;;;;;10.55;3.28;;;;;;;20.59;50.45;98950.25;5011319;28;20034;-67
2021/07/30 07:22:00;;;;;;;4.63;2.88;;;;;;;20.72;50.66;98947.13;5013110;28;20128;-67
2021/07/30 07:24:26;;;;;;;4.55;3.15;;;;;;;21.21;49.66;98945.44;5012735;28;20034;-67
2021/07/30 07:26:51;;;;;;;3.75;2.28;;;;;;;21.77;48.22;98947.56;5012960;28;20030;-66
2021/07/30 07:29:17;;;;;;;14.63;3.65;;;;;;;22.25;46.90;98937.81;5012711;28;20042;-66
2021/07/30 07:31:44;;;;;;;4.15;2.70;;;;;;;22.44;46.27;98940.09;5012821;28;20514;-66
2021/07/30 07:34:11;;;;;;;4.88;2.72;;;;;;;22.34;46.40;98941.31;5012844;28;20048;-66
2021/07/30 07:36:36;;;;;;;6.28;3.22;;;;;;;22.25;45.95;98932.44;5012305;28;20030;-67
2021/07/30 07:39:02;;;;;;;7.60;3.05;;;;;;;22.44;45.20;98934.72;5012293;28;20656;-65
2021/07/30 07:41:28;;;;;;;7.10;2.70;;;;;;;22.73;44.50;98938.66;5006661;28;20034;-71
2021/07/30 07:43:53;;;;;;;7.32;3.20;;;;;;;22.88;44.69;98934.22;5005826;28;20038;-70
2021/07/30 07:46:18;;;;;;;3.70;2.35;;;;;;;22.87;43.71;98929.84;4996650;28;20131;-71
2021/07/30 07:48:44;;;;;;;5.53;2.53;;;;;;;22.82;43.47;98929.56;5006895;28;20042;-70
2021/07/30 07:51:09;;;;;;;6.90;2.50;;;;;;;22.79;43.84;98926.34;5006718;28;20065;-69
2021/07/30 07:53:35;;;;;;;4.93;2.15;;;;;;;22.83;43.82;98928.53;5005046;28;20046;-69
2021/07/30 07:56:05;;;;;;;7.15;2.97;;;;;;;22.73;43.70;98925.22;4991973;28;20105;-72
2021/07/30 07:58:31;;;;;;;8.32;2.67;;;;;;;22.66;44.19;98924.25;4997607;28;20038;-71
2021/07/30 08:00:56;;;;;;;3.83;2.65;;;;;;;22.58;43.72;98921.59;5004690;28;20068;-71
2021/07/30 08:03:22;;;;;;;9.20;3.13;;;;;;;22.40;44.21;98921.84;5005299;28;20522;-71
2021/07/30 08:05:48;;;;;;;7.13;2.58;;;;;;;22.32;44.70;98917.28;5005387;28;20080;-70
2021/07/30 08:08:13;;;;;;;5.32;2.65;;;;;;;22.11;45.58;98911.63;5005538;28;20522;-70
2021/07/30 08:10:38;;;;;;;5.20;2.60;;;;;;;22.23;45.07;98911.13;5005681;28;20045;-70
2021/07/30 08:13:04;;;;;;;8.57;3.72;;;;;;;22.54;44.00;98914.88;5006248;28;20533;-70
2021/07/30 08:15:29;;;;;;;4.65;2.80;;;;;;;23.12;43.08;98902.88;5004843;28;20041;-71
2021/07/30 08:17:54;;;;;;;4.93;2.42;;;;;;;23.75;41.47;98901.75;5006064;28;20030;-69
2021/07/30 08:20:20;;;;;;;4.88;2.90;;;;;;;24.05;40.63;98907.19;5005844;28;20125;-69
2021/07/30 08:22:46;;;;;;;6.20;2.60;;;;;;;23.81;41.46;98896.66;5006313;28;20046;-70
2021/07/30 08:25:13;;;;;;;6.05;2.67;;;;;;;23.69;41.56;98904.28;5007354;28;20061;-71
2021/07/30 08:27:39;;;;;;;6.75;3.38;;;;;;;23.90;41.54;98906.31;5006676;28;20115;-70
2021/07/30 08:30:04;;;;;;;5.65;2.53;;;;;;;23.52;42.04;98901.72;5007175;28;20565;-71
2021/07/30 08:32:30;;;;;;;5.07;3.38;;;;;;;23.56;41.54;98897.66;5006966;28;20087;-71
2021/07/30 08:34:55;;;;;;;4.95;2.95;;;;;;;23.40;42.08;98907.72;5006048;28;20042;-70
2021/07/30 08:37:20;;;;;;;6.45;2.67;;;;;;;23.32;42.58;98900.56;5006190;28;20509;-70
2021/07/30 08:39:46;;;;;;;3.65;2.67;;;;;;;23.29;42.71;98901.75;4984068;28;20038;-70
2021/07/30 08:42:14;;;;;;;7.93;2.97;;;;;;;23.35;42.88;98901.00;5005797;28;20072;-70
2021/07/30 08:44:39;;;;;;;8.23;3.75;;;;;;;23.41;43.14;98899.47;5005069;28;20044;-69
2021/07/30 08:47:05;;;;;;;3.72;2.47;;;;;;;23.45;42.40;98903.47;5004763;28;20041;-69
2021/07/30 08:49:34;;;;;;;7.70;3.33;;;;;;;23.22;42.72;98900.78;5005556;28;20065;-70
2021/07/30 08:52:07;;;;;;;8.43;2.55;;;;;;;23.11;43.44;98903.88;5005782;28;20072;-70
2021/07/30 08:54:33;;;;;;;6.13;3.17;;;;;;;23.19;43.42;98900.31;5005565;28;20045;-68
2021/07/30 08:56:58;;;;;;;4.03;2.58;;;;;;;23.29;43.47;98906.28;5005242;28;20042;-69
2021/07/30 08:59:23;;;;;;;6.90;2.90;;;;;;;23.31;43.15;98899.72;5004385;28;20056;-70
2021/07/30 09:01:53;;;;;;;6.82;3.60;;;;;;;23.42;43.12;98898.44;4996817;28;21057;-70
2021/07/30 09:04:28;;;;;;;6.75;3.13;;;;;;;23.48;43.15;98902.25;5006341;28;20589;-71
2021/07/30 09:06:55;;;;;;;4.97;2.83;;;;;;;23.60;42.40;98891.91;5006942;28;20042;-68
2021/07/30 09:09:20;;;;;;;6.15;2.75;;;;;;;23.79;43.04;98884.19;5004763;28;20501;-69
2021/07/30 09:11:46;;;;;;;11.55;3.28;;;;;;;23.79;42.33;98892.28;5005659;28;20038;-70
2021/07/30 09:14:12;;;;;;;7.18;2.30;;;;;;;24.11;42.42;98889.44;5006238;28;20756;-68
2021/07/30 09:16:47;;;;;;;6.55;3.33;;;;;;;24.21;41.62;98879.25;5006340;28;20061;-69
2021/07/30 09:19:13;;;;;;;8.05;3.05;;;;;;;24.49;41.34;98876.78;5006315;28;20132;-70
2021/07/30 09:21:39;;;;;;;3.83;2.72;;;;;;;24.79;39.98;98868.63;5006711;28;20490;-70
2021/07/30 09:24:06;;;;;;;4.78;2.53;;;;;;;25.00;40.21;98865.94;5004632;28;20098;-69
2021/07/30 09:26:47;;;;;;;9.13;3.00;;;;;;;24.76;40.66;98871.69;5005122;28;20062;-71
2021/07/30 09:29:13;;;;;;;5.20;3.22;;;;;;;25.00;40.57;98867.81;5002906;28;20030;-71
2021/07/30 09:32:09;;;;;;;5.15;2.83;;;;;;;26.00;38.51;98866.06;5004953;28;20932;-69
2021/07/30 09:34:35;;;;;;;8.48;3.50;;;;;;;26.67;37.31;98860.00;4997601;28;20160;-70
2021/07/30 09:37:03;;;;;;;5.57;3.33;;;;;;;27.33;35.52;98853.13;5004443;28;20037;-70
2021/07/30 09:39:45;;;;;;;10.55;3.60;;;;;;;27.96;34.70;98856.25;5004781;28;20045;-70
2021/07/30 09:42:13;;;;;;;5.90;3.92;;;;;;;28.50;33.70;98851.53;5004690;28;20578;-71
2021/07/30 09:44:44;;;;;;;4.63;3.28;;;;;;;27.88;34.63;98844.78;5004705;28;20069;-70
2021/07/30 09:47:13;;;;;;;4.65;3.30;;;;;;;28.50;33.65;98842.56;4996387;28;21440;-70
2021/07/30 09:49:48;;;;;;;4.45;3.50;;;;;;;28.94;33.15;98838.19;5003270;28;20030;-70
2021/07/30 09:52:14;;;;;;;;;;;;;;;28.87;33.09;98835.50;5005892;28;20100;-70
2021/07/30 09:54:43;;;;;;;5.75;3.95;;;;;;;29.24;32.20;98816.72;5004218;28;20439;-71
2021/07/30 09:57:10;;;;;;;5.70;3.45;;;;;;;29.54;32.31;98820.44;5004018;28;20038;-71
2021/07/30 09:59:41;;;;;;;6.20;3.05;;;;;;;29.34;32.76;98822.50;5004003;28;20061;-70
2021/07/30 10:02:10;;;;;;;9.05;3.22;;;;;;;29.02;32.72;98814.34;5002296;28;20041;-70
2021/07/30 10:04:42;;;;;;;5.45;2.70;;;;;;;28.87;32.96;98817.38;5004396;28;20033;-70
2021/07/30 10:07:08;;;;;;;4.45;3.03;;;;;;;28.05;34.35;98818.91;5004017;28;20049;-70
2021/07/30 10:09:35;;;;;;;4.45;3.30;;;;;;;27.27;35.32;98811.47;5004084;28;20669;-72
2021/07/30 10:12:01;;;;;;;4.10;3.28;;;;;;;27.26;35.37;98815.22;5002946;28;20072;-70
2021/07/30 10:14:29;;;;;;;6.88;3.72;;;;;;;28.00;34.96;98800.59;5004337;28;20070;-70
2021/07/30 10:17:01;;;;;;;5.00;3.30;;;;;;;28.37;34.33;98797.34;5004102;28;20044;-70
2021/07/30 10:19:29;;;;;;;5.65;2.97;;;;;;;27.72;34.87;98792.69;5003565;28;20049;-73
2021/07/30 10:21:56;;;;;;;5.05;3.50;;;;;;;27.98;34.28;98789.13;5003243;28;20453;-70
2021/07/30 10:24:23;;;;;;;5.38;2.88;;;;;;;28.94;33.45;98794.78;5004207;28;20065;-70
2021/07/30 10:26:49;;;;;;;6.82;3.75;;;;;;;29.55;32.56;98791.41;5003323;28;20036;-70
2021/07/30 10:29:15;;;;;;;6.45;3.63;;;;;;;29.51;31.31;98792.88;5004010;28;20038;-70
2021/07/30 10:31:50;;;;;;;6.43;2.90;;;;;;;29.26;32.12;98782.03;5001796;28;20026;-69
2021/07/30 10:34:34;;;;;;;4.10;3.05;;;;;;;29.70;31.65;98794.63;5003683;28;20079;-71
2021/07/30 10:36:59;;;;;;;9.75;4.38;;;;;;;28.40;32.76;98791.47;5002231;28;20417;-70
2021/07/30 10:39:25;;;;;;;5.20;3.47;;;;;;;27.92;33.44;98783.75;5001086;28;20044;-70
2021/07/30 10:42:11;;;;;;;5.82;3.65;;;;;;;29.16;31.77;98785.25;5002752;28;20810;-71
2021/07/30 10:45:15;;;;;;;5.82;3.25;;;;;;;29.70;30.80;98772.06;4990785;28;20429;-70
2021/07/30 10:47:41;;;;;;;4.18;3.10;;;;;;;29.73;31.69;98775.19;5003217;28;20053;-71
2021/07/30 10:50:41;;;;;;;5.03;3.60;;;;;;;30.36;29.71;98776.78;5003882;28;20046;-70
2021/07/30 10:53:36;;;;;;;4.32;3.05;;;;;;;30.55;29.11;98772.16;5003555;28;20038;-71
2021/07/30 10:56:04;;;;;;;5.75;3.63;;;;;;;30.42;29.79;98775.03;5003171;28;20042;-72
2021/07/30 10:58:44;;;;;;;6.93;3.90;;;;;;;30.76;28.87;98773.50;5003130;28;20405;-73
2021/07/30 11:01:11;;;;;;;5.65;3.10;;;;;;;29.58;30.45;98774.66;5003457;28;20049;-70
2021/07/30 11:03:49;;;;;;;4.38;2.95;;;;;;;28.58;32.49;98766.41;5002184;28;20034;-71
2021/07/30 11:06:16;;;;;;;4.88;3.42;;;;;;;27.90;34.02;98759.56;4995027;28;20041;-70
2021/07/30 11:09:06;;;;;;;4.88;3.33;;;;;;;27.48;34.55;98772.53;4999137;28;20125;-72
2021/07/30 11:11:57;;;;;;;5.72;3.05;;;;;;;27.06;35.51;98760.22;4993593;28;20033;-71
2021/07/30 11:14:27;;;;;;;4.78;3.10;;;;;;;26.80;36.05;98769.94;4988578;28;20050;-72
2021/07/30 11:17:04;;;;;;;6.05;3.85;;;;;;;26.68;36.14;98763.47;4996069;28;20037;-71
2021/07/30 11:19:35;;;;;;;8.35;4.70;;;;;;;26.52;35.37;98767.38;5003009;28;20660;-70
2021/07/30 11:22:03;;;;;;;5.72;3.78;;;;;;;26.58;35.96;98774.69;4994425;28;20481;-71
2021/07/30 11:24:29;;;;;;;5.97;3.67;;;;;;;26.57;36.04;98773.03;4983655;28;20738;-70
2021/07/30 11:26:55;;;;;;;5.05;4.05;;;;;;;26.64;36.44;98764.94;4983603;28;20422;-69
2021/07/30 11:29:21;;;;;;;8.10;3.78;;;;;;;26.48;37.06;98768.81;4974014;28;20050;-70
2021/07/30 11:31:54;;;;;;;8.00;3.97;;;;;;;26.54;36.43;98773.44;5009401;28;20125;-70
2021/07/30 11:34:23;;;;;;;5.68;3.40;;;;;;;26.47;36.66;98759.03;5010144;28;20084;-70
2021/07/30 11:36:50;;;;;;;6.28;4.13;;;;;;;26.45;37.24;98758.41;5002703;28;20040;-71